createdAt,value
2023-03-27T00:00:00.894Z,7.40
2023-03-27T00:00:26.681Z,7.40
2023-03-27T00:00:51.866Z,7.40
2023-03-27T00:01:16.179Z,7.40
2023-03-27T00:01:39.035Z,7.40
2023-03-27T00:02:01.921Z,7.40
2023-03-27T00:02:27.228Z,7.50
2023-03-27T00:02:50.221Z,7.50
2023-03-27T00:03:16.188Z,7.50
2023-03-27T00:03:40.333Z,7.60
2023-03-27T00:04:03.436Z,7.50
2023-03-27T00:04:28.710Z,7.50
2023-03-27T00:04:54.754Z,7.50
2023-03-27T00:05:20.655Z,7.50
2023-03-27T00:05:48.210Z,7.40
2023-03-27T00:06:12.063Z,7.40
2023-03-27T00:06:34.823Z,7.30
2023-03-27T00:06:57.520Z,7.30
2023-03-27T00:07:22.843Z,7.30
2023-03-27T00:07:48.681Z,7.30
2023-03-27T00:08:11.704Z,7.30
2023-03-27T00:08:36.816Z,7.30
2023-03-27T00:09:03.040Z,7.30
2023-03-27T00:09:29.855Z,7.30
2023-03-27T00:09:53.802Z,7.30
2023-03-27T00:10:16.877Z,7.30
2023-03-27T00:10:41.875Z,7.30
2023-03-27T00:11:05.111Z,7.30
2023-03-27T00:11:30.393Z,7.30
2023-03-27T00:11:56.279Z,7.30
2023-03-27T00:12:19.265Z,7.30
2023-03-27T00:12:44.303Z,7.30
2023-03-27T00:13:07.197Z,7.30
2023-03-27T00:13:32.174Z,7.30
2023-03-27T00:13:55.064Z,7.30
2023-03-27T00:14:20.063Z,7.30
2023-03-27T00:14:42.829Z,7.30
2023-03-27T00:15:09.021Z,7.30
2023-03-27T00:15:31.812Z,7.20
2023-03-27T00:15:57.126Z,7.30
2023-03-27T00:16:22.372Z,7.30
2023-03-27T00:16:46.701Z,7.30
2023-03-27T00:17:09.587Z,7.30
2023-03-27T00:17:34.991Z,7.30
2023-03-27T00:17:58.896Z,7.30
2023-03-27T00:18:23.835Z,7.30
2023-03-27T00:18:46.957Z,7.30
2023-03-27T00:19:12.237Z,7.30
2023-03-27T00:19:36.505Z,7.30
2023-03-27T00:20:00.636Z,7.30
2023-03-27T00:20:25.608Z,7.30
2023-03-27T00:20:48.420Z,7.20
2023-03-27T00:21:13.733Z,7.20
2023-03-27T00:21:36.384Z,7.30
2023-03-27T00:22:01.461Z,7.20
2023-03-27T00:22:24.230Z,7.20
2023-03-27T00:22:49.125Z,7.30
2023-03-27T00:23:13.288Z,7.20
2023-03-27T00:23:36.533Z,7.20
2023-03-27T00:24:02.334Z,7.20
2023-03-27T00:24:25.207Z,7.10
2023-03-27T00:24:48.170Z,7.20
2023-03-27T00:25:13.568Z,7.20
2023-03-27T00:25:37.215Z,7.20
2023-03-27T00:26:03.097Z,7.20
2023-03-27T00:26:25.854Z,7.20
2023-03-27T00:26:48.825Z,7.20
2023-03-27T00:27:14.030Z,7.20
2023-03-27T00:27:37.144Z,7.10
2023-03-27T00:28:02.044Z,7.10
2023-03-27T00:28:27.310Z,7.10
2023-03-27T00:28:50.237Z,7.20
2023-03-27T00:29:13.824Z,7.20
2023-03-27T00:29:36.717Z,7.20
2023-03-27T00:30:02.433Z,7.20
2023-03-27T00:30:29.055Z,7.20
2023-03-27T00:30:51.843Z,7.20
2023-03-27T00:31:17.888Z,7.20
2023-03-27T00:31:40.970Z,7.20
2023-03-27T00:32:03.677Z,7.20
2023-03-27T00:32:28.661Z,7.30
2023-03-27T00:32:55.536Z,7.20
2023-03-27T00:33:18.603Z,7.30
2023-03-27T00:33:44.270Z,7.30
2023-03-27T00:34:06.989Z,7.30
2023-03-27T00:34:32.766Z,7.30
2023-03-27T00:34:55.628Z,7.20
2023-03-27T00:35:22.226Z,7.20
2023-03-27T00:35:46.180Z,7.20
2023-03-27T00:36:10.394Z,7.20
2023-03-27T00:36:33.120Z,7.20
2023-03-27T00:36:56.225Z,7.20
2023-03-27T00:37:19.206Z,7.20
2023-03-27T00:37:44.157Z,7.30
2023-03-27T00:38:09.801Z,7.20
2023-03-27T00:38:34.114Z,7.30
2023-03-27T00:38:57.062Z,7.30
2023-03-27T00:39:19.812Z,7.30
2023-03-27T00:39:44.764Z,7.30
2023-03-27T00:40:13.649Z,7.30
2023-03-27T00:40:37.372Z,7.30
2023-03-27T00:41:03.427Z,7.30
2023-03-27T00:41:26.302Z,7.30
2023-03-27T00:41:52.547Z,7.30
2023-03-27T00:42:16.400Z,7.30
2023-03-27T00:42:41.510Z,7.40
2023-03-27T00:43:19.336Z,7.40
2023-03-27T00:43:43.837Z,7.40
2023-03-27T00:44:23.719Z,7.40
2023-03-27T00:44:46.523Z,7.40
2023-03-27T00:45:12.807Z,7.40
2023-03-27T00:45:38.038Z,7.40
2023-03-27T00:46:05.468Z,7.40
2023-03-27T00:46:39.772Z,7.40
2023-03-27T00:47:03.093Z,7.40
2023-03-27T00:47:33.272Z,7.40
2023-03-27T00:47:58.391Z,7.40
2023-03-27T00:48:21.232Z,7.40
2023-03-27T00:48:47.365Z,7.40
2023-03-27T00:49:12.181Z,7.40
2023-03-27T00:49:35.785Z,7.40
2023-03-27T00:49:58.518Z,7.40
2023-03-27T00:50:26.860Z,7.40
2023-03-27T00:50:49.696Z,7.40
2023-03-27T00:51:12.478Z,7.40
2023-03-27T00:51:37.755Z,7.40
2023-03-27T00:52:00.753Z,7.40
2023-03-27T00:52:23.476Z,7.40
2023-03-27T00:52:50.711Z,7.40
2023-03-27T00:53:15.700Z,7.40
2023-03-27T00:53:38.470Z,7.30
2023-03-27T00:54:03.395Z,7.40
2023-03-27T00:54:30.280Z,7.40
2023-03-27T00:54:53.072Z,7.30
2023-03-27T00:55:18.952Z,7.40
2023-03-27T00:55:43.616Z,7.30
2023-03-27T00:56:07.943Z,7.40
2023-03-27T00:56:30.874Z,7.40
2023-03-27T00:56:57.433Z,7.40
2023-03-27T00:57:22.162Z,7.40
2023-03-27T00:57:46.758Z,7.40
2023-03-27T00:58:11.245Z,7.40
2023-03-27T00:58:36.905Z,7.40
2023-03-27T00:59:02.071Z,7.40
2023-03-27T00:59:26.750Z,7.40
2023-03-27T00:59:49.680Z,7.40
2023-03-27T01:00:14.921Z,7.40
2023-03-27T01:00:37.663Z,7.40
2023-03-27T01:01:00.487Z,7.50
2023-03-27T01:01:23.982Z,7.40
2023-03-27T01:01:47.531Z,7.50
2023-03-27T01:02:11.395Z,7.50
2023-03-27T01:02:35.280Z,7.50
2023-03-27T01:03:00.920Z,7.50
2023-03-27T01:03:25.610Z,7.50
2023-03-27T01:03:49.236Z,7.50
2023-03-27T01:04:12.384Z,7.50
2023-03-27T01:04:36.337Z,7.50
2023-03-27T01:05:02.507Z,7.50
2023-03-27T01:05:27.543Z,7.50
2023-03-27T01:05:50.447Z,7.50
2023-03-27T01:06:14.370Z,7.50
2023-03-27T01:06:39.775Z,7.50
2023-03-27T01:07:04.046Z,7.50
2023-03-27T01:07:28.839Z,7.50
2023-03-27T01:08:00.503Z,7.50
2023-03-27T01:08:24.701Z,7.50
2023-03-27T01:08:47.859Z,7.60
2023-03-27T01:09:11.228Z,7.50
2023-03-27T01:09:46.111Z,7.50
2023-03-27T01:10:10.301Z,7.50
2023-03-27T01:10:40.752Z,7.60
2023-03-27T01:11:10.506Z,7.50
2023-03-27T01:11:39.709Z,7.50
2023-03-27T01:12:09.293Z,7.50
2023-03-27T01:12:36.762Z,7.50
2023-03-27T01:13:00.535Z,7.50
2023-03-27T01:13:32.472Z,7.50
2023-03-27T01:14:01.497Z,7.50
2023-03-27T01:14:28.445Z,7.50
2023-03-27T01:15:04.813Z,7.60
2023-03-27T01:15:32.581Z,7.60
2023-03-27T01:15:57.476Z,7.50
2023-03-27T01:16:22.758Z,7.60
2023-03-27T01:16:51.906Z,7.60
2023-03-27T01:17:23.257Z,7.60
2023-03-27T01:17:58.846Z,7.60
2023-03-27T01:18:31.230Z,7.50
2023-03-27T01:19:00.023Z,7.60
2023-03-27T01:19:53.672Z,7.60
2023-03-27T01:20:36.812Z,7.60
2023-03-27T01:21:22.755Z,7.60
2023-03-27T01:22:12.975Z,7.60
2023-03-27T01:23:04.646Z,7.60
2023-03-27T01:24:03.070Z,7.60
2023-03-27T01:24:55.984Z,7.70
2023-03-27T01:25:44.652Z,7.70
2023-03-27T01:26:57.903Z,7.70
2023-03-27T01:27:21.831Z,7.70
2023-03-27T01:28:22.642Z,7.70
2023-03-27T01:28:49.446Z,7.70
2023-03-27T01:29:13.962Z,7.70
2023-03-27T01:29:58.230Z,7.80
2023-03-27T01:30:21.178Z,7.80
2023-03-27T01:30:49.178Z,7.80
2023-03-27T01:31:21.383Z,7.80
2023-03-27T01:32:01.157Z,7.80
2023-03-27T01:32:49.826Z,7.80
2023-03-27T01:33:30.110Z,7.90
2023-03-27T01:34:04.224Z,7.80
2023-03-27T01:35:02.067Z,7.80
2023-03-27T01:35:57.212Z,7.80
2023-03-27T01:36:35.040Z,7.80
2023-03-27T01:37:36.138Z,7.70
2023-03-27T01:38:19.905Z,7.70
2023-03-27T01:39:19.384Z,7.70
2023-03-27T01:39:48.659Z,7.70
2023-03-27T01:40:13.007Z,7.70
2023-03-27T01:40:39.295Z,7.70
2023-03-27T01:41:04.652Z,7.70
2023-03-27T01:41:27.600Z,7.70
2023-03-27T01:41:55.690Z,7.70
2023-03-27T01:42:21.909Z,7.60
2023-03-27T01:42:46.811Z,7.60
2023-03-27T01:43:11.846Z,7.60
2023-03-27T01:43:36.562Z,7.60
2023-03-27T01:44:00.520Z,7.60
2023-03-27T01:44:43.031Z,7.60
2023-03-27T01:45:12.228Z,7.60
2023-03-27T01:45:36.532Z,7.60
2023-03-27T01:46:01.851Z,7.60
2023-03-27T01:46:27.245Z,7.60
2023-03-27T01:46:51.903Z,7.60
2023-03-27T01:47:26.619Z,7.60
2023-03-27T01:47:52.703Z,7.60
2023-03-27T01:48:17.420Z,7.60
2023-03-27T01:48:42.951Z,7.60
2023-03-27T01:49:07.845Z,7.60
2023-03-27T01:49:31.936Z,7.60
2023-03-27T01:49:56.158Z,7.70
2023-03-27T01:50:21.310Z,7.60
2023-03-27T01:50:46.635Z,7.60
2023-03-27T01:51:11.180Z,7.60
2023-03-27T01:51:35.899Z,7.50
2023-03-27T01:52:00.832Z,7.60
2023-03-27T01:52:26.499Z,7.60
2023-03-27T01:52:53.428Z,7.60
2023-03-27T01:53:18.397Z,7.60
2023-03-27T01:53:43.062Z,7.60
2023-03-27T01:54:14.264Z,7.60
2023-03-27T01:54:38.787Z,7.60
2023-03-27T01:55:05.368Z,7.60
2023-03-27T01:55:30.638Z,7.60
2023-03-27T01:55:54.892Z,7.60
2023-03-27T01:56:26.201Z,7.60
2023-03-27T01:56:53.957Z,7.60
2023-03-27T01:57:22.422Z,7.60
2023-03-27T01:57:50.309Z,7.60
2023-03-27T01:58:14.756Z,7.50
2023-03-27T01:58:39.760Z,7.50
2023-03-27T01:59:04.944Z,7.50
2023-03-27T01:59:28.895Z,7.50
2023-03-27T01:59:55.707Z,7.50
2023-03-27T02:00:22.556Z,7.50
2023-03-27T02:00:52.441Z,7.50
2023-03-27T02:01:18.292Z,7.50
2023-03-27T02:01:43.250Z,7.50
2023-03-27T02:02:08.649Z,7.60
2023-03-27T02:02:32.227Z,7.50
2023-03-27T02:02:57.424Z,7.50
2023-03-27T02:03:22.811Z,7.50
2023-03-27T02:03:47.375Z,7.50
2023-03-27T02:04:12.802Z,7.50
2023-03-27T02:04:41.221Z,7.50
2023-03-27T02:05:05.663Z,7.50
2023-03-27T02:05:31.380Z,7.50
2023-03-27T02:05:56.866Z,7.50
2023-03-27T02:06:21.238Z,7.50
2023-03-27T02:06:48.169Z,7.60
2023-03-27T02:07:12.812Z,7.60
2023-03-27T02:07:38.747Z,7.50
2023-03-27T02:08:04.227Z,7.60
2023-03-27T02:08:29.941Z,7.60
2023-03-27T02:08:55.371Z,7.70
2023-03-27T02:09:20.546Z,7.60
2023-03-27T02:09:46.341Z,7.70
2023-03-27T02:10:11.522Z,7.70
2023-03-27T02:10:38.472Z,7.70
2023-03-27T02:11:01.411Z,7.70
2023-03-27T02:11:25.252Z,7.70
2023-03-27T02:11:50.731Z,7.70
2023-03-27T02:12:16.820Z,7.70
2023-03-27T02:12:40.670Z,7.70
2023-03-27T02:13:06.656Z,7.70
2023-03-27T02:13:32.030Z,7.70
2023-03-27T02:13:55.892Z,7.70
2023-03-27T02:14:22.525Z,7.70
2023-03-27T02:14:47.382Z,7.80
2023-03-27T02:15:24.111Z,7.70
2023-03-27T02:15:48.992Z,7.70
2023-03-27T02:16:16.384Z,7.70
2023-03-27T02:16:42.737Z,7.70
2023-03-27T02:17:10.347Z,7.70
2023-03-27T02:17:34.315Z,7.70
2023-03-27T02:18:05.220Z,7.70
2023-03-27T02:18:31.869Z,7.70
2023-03-27T02:18:56.871Z,7.70
2023-03-27T02:19:23.425Z,7.70
2023-03-27T02:19:49.303Z,7.80
2023-03-27T02:20:16.810Z,7.80
2023-03-27T02:20:40.180Z,7.80
2023-03-27T02:21:03.300Z,7.80
2023-03-27T02:21:26.584Z,7.80
2023-03-27T02:21:49.384Z,7.80
2023-03-27T02:22:15.371Z,7.80
2023-03-27T02:22:40.242Z,7.80
2023-03-27T02:23:03.010Z,7.90
2023-03-27T02:23:25.846Z,7.80
2023-03-27T02:23:48.642Z,7.90
2023-03-27T02:24:14.762Z,7.90
2023-03-27T02:24:38.928Z,7.90
2023-03-27T02:25:05.811Z,7.80
2023-03-27T02:25:30.004Z,7.90
2023-03-27T02:25:55.873Z,7.80
2023-03-27T02:26:18.622Z,7.80
2023-03-27T02:26:44.172Z,7.70
2023-03-27T02:27:16.033Z,7.70
2023-03-27T02:27:42.267Z,7.60
2023-03-27T02:28:37.089Z,7.60
2023-03-27T02:29:07.428Z,7.60
2023-03-27T02:29:40.166Z,7.50
2023-03-27T02:30:08.522Z,7.50
2023-03-27T02:30:35.053Z,7.50
2023-03-27T02:31:06.215Z,7.50
2023-03-27T02:31:53.359Z,7.50
2023-03-27T02:32:22.474Z,7.50
2023-03-27T02:32:47.675Z,7.50
2023-03-27T02:33:15.051Z,7.50
2023-03-27T02:33:43.163Z,7.60
2023-03-27T02:34:19.688Z,7.60
2023-03-27T02:35:03.742Z,7.60
2023-03-27T02:35:34.552Z,7.60
2023-03-27T02:36:00.595Z,7.60
2023-03-27T02:36:28.650Z,7.60
2023-03-27T02:36:55.245Z,7.60
2023-03-27T02:37:21.567Z,7.60
2023-03-27T02:37:50.905Z,7.60
2023-03-27T02:38:17.533Z,7.60
2023-03-27T02:38:41.615Z,7.60
2023-03-27T02:39:07.457Z,7.60
2023-03-27T02:39:34.005Z,7.60
2023-03-27T02:39:58.300Z,7.60
2023-03-27T02:40:30.088Z,7.60
2023-03-27T02:40:58.231Z,7.60
2023-03-27T02:41:22.624Z,7.60
2023-03-27T02:41:48.322Z,7.70
2023-03-27T02:42:12.893Z,7.70
2023-03-27T02:42:40.049Z,7.70
2023-03-27T02:43:06.743Z,7.70
2023-03-27T02:43:31.052Z,7.70
2023-03-27T02:44:00.968Z,7.70
2023-03-27T02:44:27.522Z,7.80
2023-03-27T02:44:52.703Z,7.80
2023-03-27T02:45:19.395Z,7.80
2023-03-27T02:45:47.893Z,7.80
2023-03-27T02:46:12.911Z,7.80
2023-03-27T02:46:38.646Z,7.80
2023-03-27T02:47:04.333Z,7.80
2023-03-27T02:47:29.121Z,7.80
2023-03-27T02:47:53.346Z,7.80
2023-03-27T02:48:17.797Z,7.80
2023-03-27T02:48:44.659Z,7.80
2023-03-27T02:49:10.200Z,7.80
2023-03-27T02:49:35.358Z,7.70
2023-03-27T02:50:00.194Z,7.80
2023-03-27T02:50:26.102Z,7.80
2023-03-27T02:50:51.373Z,7.70
2023-03-27T02:51:16.566Z,7.80
2023-03-27T02:51:41.620Z,7.80
2023-03-27T02:52:06.635Z,7.80
2023-03-27T02:52:34.401Z,7.80
2023-03-27T02:52:58.292Z,7.70
2023-03-27T02:53:22.904Z,7.70
2023-03-27T02:53:47.978Z,7.80
2023-03-27T02:54:12.980Z,7.80
2023-03-27T02:54:38.229Z,7.70
2023-03-27T02:55:06.786Z,7.70
2023-03-27T02:55:35.281Z,7.70
2023-03-27T02:55:59.778Z,7.70
2023-03-27T02:56:22.577Z,7.80
2023-03-27T02:56:47.527Z,7.80
2023-03-27T02:57:12.350Z,7.70
2023-03-27T02:57:38.880Z,7.80
2023-03-27T02:58:04.376Z,7.80
2023-03-27T02:58:30.926Z,7.70
2023-03-27T02:58:57.477Z,7.70
2023-03-27T02:59:22.636Z,7.70
2023-03-27T02:59:46.672Z,7.70
2023-03-27T03:00:40.321Z,7.70
2023-03-27T03:01:03.159Z,7.70
2023-03-27T03:01:30.873Z,7.70
2023-03-27T03:01:54.872Z,7.70
2023-03-27T03:02:20.587Z,7.70
2023-03-27T03:02:46.132Z,7.70
2023-03-27T03:03:10.818Z,7.70
2023-03-27T03:03:36.343Z,7.70
2023-03-27T03:04:00.987Z,7.60
2023-03-27T03:04:25.783Z,7.70
2023-03-27T03:04:57.189Z,7.70
2023-03-27T03:05:20.915Z,7.70
2023-03-27T03:05:43.928Z,7.80
2023-03-27T03:06:11.263Z,7.80
2023-03-27T03:06:34.527Z,7.80
2023-03-27T03:06:57.290Z,7.70
2023-03-27T03:07:20.132Z,7.80
2023-03-27T03:07:42.902Z,7.80
2023-03-27T03:08:10.561Z,7.80
2023-03-27T03:08:38.391Z,7.80
2023-03-27T03:09:05.354Z,7.90
2023-03-27T03:09:31.067Z,7.90
2023-03-27T03:09:53.886Z,7.90
2023-03-27T03:10:18.852Z,7.90
2023-03-27T03:10:45.273Z,7.90
2023-03-27T03:11:10.281Z,7.90
2023-03-27T03:11:34.053Z,7.90
2023-03-27T03:11:59.121Z,7.90
2023-03-27T03:12:24.302Z,7.90
2023-03-27T03:12:47.196Z,7.90
2023-03-27T03:13:12.417Z,7.90
2023-03-27T03:13:35.228Z,7.90
2023-03-27T03:13:57.928Z,7.90
2023-03-27T03:14:21.857Z,7.80
2023-03-27T03:14:44.624Z,7.90
2023-03-27T03:15:09.071Z,7.80
2023-03-27T03:15:32.056Z,7.80
2023-03-27T03:15:55.399Z,7.90
2023-03-27T03:16:18.770Z,7.90
2023-03-27T03:16:41.535Z,7.90
2023-03-27T03:17:04.674Z,8.00
2023-03-27T03:17:27.529Z,7.90
2023-03-27T03:17:50.402Z,7.90
2023-03-27T03:18:14.267Z,7.90
2023-03-27T03:18:37.072Z,7.90
2023-03-27T03:18:59.778Z,7.90
2023-03-27T03:19:24.059Z,7.90
2023-03-27T03:19:46.864Z,7.90
2023-03-27T03:20:14.689Z,7.80
2023-03-27T03:20:37.414Z,7.80
2023-03-27T03:21:00.238Z,7.80
2023-03-27T03:21:25.985Z,7.90
2023-03-27T03:21:51.273Z,7.80
2023-03-27T03:22:14.097Z,7.90
2023-03-27T03:22:40.096Z,7.80
2023-03-27T03:23:02.982Z,7.90
2023-03-27T03:23:25.762Z,7.90
2023-03-27T03:23:58.035Z,7.90
2023-03-27T03:24:22.572Z,7.90
2023-03-27T03:24:45.258Z,7.90
2023-03-27T03:25:09.996Z,7.90
2023-03-27T03:25:32.702Z,7.90
2023-03-27T03:25:57.083Z,7.90
2023-03-27T03:26:20.070Z,8.00
2023-03-27T03:26:45.237Z,8.00
2023-03-27T03:27:08.479Z,8.00
2023-03-27T03:27:31.320Z,8.00
2023-03-27T03:27:58.321Z,8.00
2023-03-27T03:28:21.116Z,8.00
2023-03-27T03:29:00.209Z,8.00
2023-03-27T03:29:35.561Z,8.00
2023-03-27T03:29:58.345Z,8.00
2023-03-27T03:30:21.211Z,7.90
2023-03-27T03:30:45.723Z,7.90
2023-03-27T03:31:11.092Z,7.90
2023-03-27T03:31:46.014Z,8.00
2023-03-27T03:32:08.802Z,7.90
2023-03-27T03:32:31.611Z,8.00
2023-03-27T03:32:57.303Z,8.00
2023-03-27T03:33:20.197Z,8.00
2023-03-27T03:33:42.896Z,8.00
2023-03-27T03:34:05.661Z,7.90
2023-03-27T03:34:30.585Z,7.90
2023-03-27T03:34:53.351Z,7.90
2023-03-27T03:35:16.244Z,7.90
2023-03-27T03:35:39.113Z,7.90
2023-03-27T03:36:02.256Z,7.90
2023-03-27T03:36:25.076Z,7.90
2023-03-27T03:36:50.907Z,7.90
2023-03-27T03:37:16.377Z,8.00
2023-03-27T03:37:39.143Z,8.00
2023-03-27T03:38:01.884Z,7.90
2023-03-27T03:38:27.367Z,7.90
2023-03-27T03:38:50.417Z,8.00
2023-03-27T03:39:13.133Z,8.00
2023-03-27T03:39:35.866Z,8.00
2023-03-27T03:39:58.627Z,8.00
2023-03-27T03:40:21.536Z,8.00
2023-03-27T03:40:44.321Z,8.00
2023-03-27T03:41:08.619Z,8.00
2023-03-27T03:41:31.368Z,8.00
2023-03-27T03:41:54.114Z,8.00
2023-03-27T03:42:23.610Z,8.00
2023-03-27T03:42:47.022Z,8.00
2023-03-27T03:43:09.758Z,8.00
2023-03-27T03:43:33.127Z,8.00
2023-03-27T03:43:55.847Z,8.00
2023-03-27T03:44:18.565Z,8.00
2023-03-27T03:44:41.342Z,8.00
2023-03-27T03:45:04.391Z,8.00
2023-03-27T03:45:27.211Z,8.00
2023-03-27T03:45:50.060Z,8.00
2023-03-27T03:46:13.017Z,8.00
2023-03-27T03:46:36.076Z,8.00
2023-03-27T03:46:58.814Z,8.00
2023-03-27T03:47:21.533Z,8.00
2023-03-27T03:47:44.480Z,8.00
2023-03-27T03:48:07.333Z,8.00
2023-03-27T03:48:30.163Z,8.00
2023-03-27T03:48:52.913Z,8.00
2023-03-27T03:49:15.680Z,7.90
2023-03-27T03:49:38.412Z,8.00
2023-03-27T03:50:01.147Z,8.00
2023-03-27T03:50:23.883Z,8.00
2023-03-27T03:50:46.817Z,8.00
2023-03-27T03:51:09.506Z,8.00
2023-03-27T03:51:32.308Z,7.90
2023-03-27T03:52:04.587Z,7.90
2023-03-27T03:52:27.733Z,7.90
2023-03-27T03:52:50.468Z,7.90
2023-03-27T03:53:13.251Z,7.90
2023-03-27T03:53:35.977Z,7.90
2023-03-27T03:53:58.706Z,7.90
2023-03-27T03:54:23.741Z,7.90
2023-03-27T03:54:46.912Z,8.00
2023-03-27T03:55:12.047Z,8.00
2023-03-27T03:55:34.886Z,8.00
2023-03-27T03:55:57.707Z,8.00
2023-03-27T03:56:24.479Z,8.00
2023-03-27T03:56:49.212Z,7.90
2023-03-27T03:57:12.237Z,8.00
2023-03-27T03:57:36.562Z,8.00
2023-03-27T03:57:59.290Z,8.00
2023-03-27T03:58:22.056Z,8.00
2023-03-27T03:58:58.107Z,8.00
2023-03-27T03:59:21.786Z,8.00
2023-03-27T03:59:44.481Z,8.00
2023-03-27T04:00:14.364Z,8.00
2023-03-27T04:00:39.128Z,8.10
2023-03-27T04:01:02.957Z,8.00
2023-03-27T04:01:28.163Z,8.00
2023-03-27T04:01:50.951Z,8.00
2023-03-27T04:02:18.199Z,8.00
2023-03-27T04:02:43.616Z,8.00
2023-03-27T04:03:08.558Z,8.00
2023-03-27T04:03:32.536Z,8.00
2023-03-27T04:03:55.486Z,8.00
2023-03-27T04:04:20.712Z,8.00
2023-03-27T04:04:45.399Z,8.00
2023-03-27T04:05:10.534Z,8.00
2023-03-27T04:05:34.372Z,8.00
2023-03-27T04:05:57.647Z,8.00
2023-03-27T04:06:26.726Z,8.00
2023-03-27T04:06:49.775Z,8.00
2023-03-27T04:07:12.543Z,8.00
2023-03-27T04:07:35.888Z,8.00
2023-03-27T04:07:59.702Z,8.00
2023-03-27T04:08:22.586Z,8.00
2023-03-27T04:08:45.928Z,8.00
2023-03-27T04:09:08.721Z,8.00
2023-03-27T04:09:31.380Z,8.00
2023-03-27T04:09:54.165Z,8.00
2023-03-27T04:10:20.060Z,8.00
2023-03-27T04:10:42.818Z,7.90
2023-03-27T04:11:06.063Z,8.00
2023-03-27T04:11:30.331Z,7.90
2023-03-27T04:11:53.136Z,8.00
2023-03-27T04:12:15.941Z,8.00
2023-03-27T04:12:38.613Z,8.00
2023-03-27T04:13:01.358Z,8.00
2023-03-27T04:13:24.141Z,8.00
2023-03-27T04:13:47.007Z,8.00
2023-03-27T04:14:09.811Z,8.00
2023-03-27T04:14:32.700Z,7.90
2023-03-27T04:14:55.529Z,8.00
2023-03-27T04:15:18.421Z,8.00
2023-03-27T04:15:41.229Z,8.00
2023-03-27T04:16:04.682Z,8.00
2023-03-27T04:16:27.468Z,8.00
2023-03-27T04:16:50.421Z,8.00
2023-03-27T04:17:13.132Z,8.00
2023-03-27T04:17:35.937Z,8.00
2023-03-27T04:17:59.071Z,8.00
2023-03-27T04:18:24.801Z,8.00
2023-03-27T04:18:50.712Z,8.00
2023-03-27T04:19:13.770Z,8.00
2023-03-27T04:19:36.541Z,8.00
2023-03-27T04:19:59.285Z,8.00
2023-03-27T04:20:22.054Z,8.10
2023-03-27T04:20:50.094Z,8.10
2023-03-27T04:21:18.080Z,8.10
2023-03-27T04:21:42.460Z,8.10
2023-03-27T04:22:07.256Z,8.00
2023-03-27T04:22:29.974Z,8.00
2023-03-27T04:22:54.587Z,8.00
2023-03-27T04:23:21.118Z,8.00
2023-03-27T04:23:45.458Z,8.00
2023-03-27T04:24:08.527Z,8.10
2023-03-27T04:24:31.356Z,8.00
2023-03-27T04:24:54.264Z,8.00
2023-03-27T04:25:17.508Z,8.00
2023-03-27T04:25:40.369Z,8.00
2023-03-27T04:26:04.176Z,8.10
2023-03-27T04:26:27.516Z,8.10
2023-03-27T04:26:51.794Z,8.10
2023-03-27T04:27:14.590Z,8.10
2023-03-27T04:27:37.321Z,8.10
2023-03-27T04:28:02.449Z,8.10
2023-03-27T04:28:25.889Z,8.10
2023-03-27T04:28:51.898Z,8.10
2023-03-27T04:29:14.686Z,8.10
2023-03-27T04:29:37.430Z,8.10
2023-03-27T04:30:00.191Z,8.10
2023-03-27T04:30:23.783Z,8.10
2023-03-27T04:30:50.541Z,8.10
2023-03-27T04:31:14.457Z,8.10
2023-03-27T04:31:39.376Z,8.20
2023-03-27T04:32:02.290Z,8.20
2023-03-27T04:32:26.412Z,8.10
2023-03-27T04:32:49.912Z,8.10
2023-03-27T04:33:18.869Z,8.10
2023-03-27T04:33:46.616Z,8.10
2023-03-27T04:34:09.855Z,8.10
2023-03-27T04:34:32.620Z,8.10
2023-03-27T04:34:55.482Z,8.10
2023-03-27T04:35:18.398Z,8.10
2023-03-27T04:35:42.572Z,8.10
2023-03-27T04:36:07.981Z,8.10
2023-03-27T04:36:31.415Z,8.10
2023-03-27T04:36:54.400Z,8.10
2023-03-27T04:37:17.119Z,8.10
2023-03-27T04:37:46.236Z,8.20
2023-03-27T04:38:09.070Z,8.20
2023-03-27T04:38:31.849Z,8.10
2023-03-27T04:38:54.596Z,8.20
2023-03-27T04:39:17.435Z,8.20
2023-03-27T04:39:43.241Z,8.20
2023-03-27T04:40:07.506Z,8.20
2023-03-27T04:40:30.921Z,8.20
2023-03-27T04:40:53.774Z,8.20
2023-03-27T04:41:17.966Z,8.10
2023-03-27T04:41:40.687Z,8.10
2023-03-27T04:42:06.082Z,8.20
2023-03-27T04:42:28.892Z,8.20
2023-03-27T04:42:51.552Z,8.20
2023-03-27T04:43:14.263Z,8.20
2023-03-27T04:43:40.054Z,8.10
2023-03-27T04:44:03.097Z,8.20
2023-03-27T04:44:26.433Z,8.10
2023-03-27T04:44:52.435Z,8.10
2023-03-27T04:45:17.614Z,8.10
2023-03-27T04:45:40.648Z,8.10
2023-03-27T04:46:04.022Z,8.10
2023-03-27T04:46:26.827Z,8.10
2023-03-27T04:46:51.136Z,8.10
2023-03-27T04:47:14.488Z,8.10
2023-03-27T04:47:38.183Z,8.00
2023-03-27T04:48:01.089Z,8.00
2023-03-27T04:48:24.940Z,8.10
2023-03-27T04:48:48.186Z,8.00
2023-03-27T04:49:10.895Z,8.00
2023-03-27T04:49:39.704Z,8.00
2023-03-27T04:50:02.418Z,8.00
2023-03-27T04:50:25.443Z,8.00
2023-03-27T04:50:52.222Z,8.00
2023-03-27T04:51:15.403Z,8.00
2023-03-27T04:51:38.647Z,8.00
2023-03-27T04:52:01.438Z,8.00
2023-03-27T04:52:25.681Z,8.00
2023-03-27T04:52:50.283Z,8.00
2023-03-27T04:53:13.453Z,8.00
2023-03-27T04:53:37.978Z,8.00
2023-03-27T04:54:05.054Z,7.90
2023-03-27T04:54:27.768Z,7.90
2023-03-27T04:54:50.507Z,7.90
2023-03-27T04:55:13.454Z,7.80
2023-03-27T04:55:39.072Z,7.70
2023-03-27T04:56:01.812Z,7.70
2023-03-27T04:56:25.182Z,7.60
2023-03-27T04:56:48.008Z,7.60
2023-03-27T04:57:12.512Z,7.60
2023-03-27T04:57:35.304Z,7.60
2023-03-27T04:58:00.493Z,7.60
2023-03-27T04:58:25.788Z,7.50
2023-03-27T04:58:48.468Z,7.50
2023-03-27T04:59:11.218Z,7.50
2023-03-27T04:59:33.971Z,7.40
2023-03-27T05:00:00.481Z,7.30
2023-03-27T05:00:25.468Z,7.30
2023-03-27T05:00:50.620Z,7.20
2023-03-27T05:01:14.155Z,7.20
2023-03-27T05:01:39.209Z,7.20
2023-03-27T05:02:02.037Z,7.10
2023-03-27T05:02:26.915Z,7.20
2023-03-27T05:02:52.843Z,7.10
2023-03-27T05:03:15.881Z,7.10
2023-03-27T05:03:40.718Z,7.10
2023-03-27T05:04:03.851Z,7.20
2023-03-27T05:04:27.936Z,7.10
2023-03-27T05:04:53.077Z,7.00
2023-03-27T05:05:17.129Z,7.00
2023-03-27T05:05:40.045Z,7.00
2023-03-27T05:06:04.726Z,7.00
2023-03-27T05:06:27.426Z,7.00
2023-03-27T05:06:50.173Z,7.00
2023-03-27T05:07:13.190Z,7.00
2023-03-27T05:07:35.935Z,6.90
2023-03-27T05:07:58.706Z,6.90
2023-03-27T05:08:23.931Z,6.90
2023-03-27T05:08:46.654Z,6.90
2023-03-27T05:09:09.341Z,6.90
2023-03-27T05:09:32.095Z,6.90
2023-03-27T05:09:56.016Z,6.90
2023-03-27T05:10:21.675Z,6.90
2023-03-27T05:10:45.342Z,6.80
2023-03-27T05:11:10.916Z,6.80
2023-03-27T05:11:33.707Z,6.80
2023-03-27T05:11:56.455Z,6.80
2023-03-27T05:12:21.620Z,6.90
2023-03-27T05:12:44.590Z,6.90
2023-03-27T05:13:08.054Z,6.80
2023-03-27T05:13:31.046Z,6.80
2023-03-27T05:13:53.800Z,6.80
2023-03-27T05:14:16.815Z,6.90
2023-03-27T05:14:39.581Z,6.80
2023-03-27T05:15:06.429Z,6.80
2023-03-27T05:15:32.674Z,6.80
2023-03-27T05:15:55.549Z,6.80
2023-03-27T05:16:18.812Z,6.80
2023-03-27T05:16:42.510Z,6.80
2023-03-27T05:17:07.441Z,6.80
2023-03-27T05:17:30.189Z,6.80
2023-03-27T05:17:58.316Z,6.80
2023-03-27T05:18:23.464Z,6.80
2023-03-27T05:18:46.280Z,6.80
2023-03-27T05:19:09.026Z,6.80
2023-03-27T05:19:34.062Z,6.80
2023-03-27T05:19:57.002Z,6.70
2023-03-27T05:20:22.234Z,6.80
2023-03-27T05:20:49.194Z,6.80
2023-03-27T05:21:12.176Z,6.70
2023-03-27T05:21:34.886Z,6.70
2023-03-27T05:21:57.611Z,6.70
2023-03-27T05:22:20.399Z,6.70
2023-03-27T05:22:43.196Z,6.70
2023-03-27T05:23:05.988Z,6.70
2023-03-27T05:23:28.761Z,6.70
2023-03-27T05:23:51.797Z,6.70
2023-03-27T05:24:14.613Z,6.70
2023-03-27T05:24:37.964Z,6.60
2023-03-27T05:25:01.953Z,6.60
2023-03-27T05:25:24.809Z,6.60
2023-03-27T05:25:59.973Z,6.60
2023-03-27T05:26:23.517Z,6.60
2023-03-27T05:26:46.256Z,6.70
2023-03-27T05:27:11.229Z,6.60
2023-03-27T05:27:35.509Z,6.60
2023-03-27T05:28:00.640Z,6.60
2023-03-27T05:28:23.867Z,6.60
2023-03-27T05:28:46.716Z,6.60
2023-03-27T05:29:11.677Z,6.60
2023-03-27T05:29:47.233Z,6.60
2023-03-27T05:30:11.633Z,6.60
2023-03-27T05:30:36.637Z,6.60
2023-03-27T05:30:59.741Z,6.60
2023-03-27T05:31:25.317Z,6.60
2023-03-27T05:31:48.117Z,6.70
2023-03-27T05:32:10.872Z,6.70
2023-03-27T05:32:36.167Z,6.60
2023-03-27T05:32:59.850Z,6.70
2023-03-27T05:33:22.667Z,6.70
2023-03-27T05:33:45.441Z,6.70
2023-03-27T05:34:08.204Z,6.70
2023-03-27T05:34:30.984Z,6.70
2023-03-27T05:34:56.739Z,6.70
2023-03-27T05:35:20.640Z,6.70
2023-03-27T05:35:46.445Z,6.70
2023-03-27T05:36:11.035Z,6.70
2023-03-27T05:36:35.519Z,6.70
2023-03-27T05:36:58.978Z,6.70
2023-03-27T05:37:27.488Z,6.60
2023-03-27T05:37:51.171Z,6.60
2023-03-27T05:38:16.113Z,6.60
2023-03-27T05:38:39.657Z,6.60
2023-03-27T05:39:04.720Z,6.60
2023-03-27T05:39:28.584Z,6.60
2023-03-27T05:39:52.987Z,6.60
2023-03-27T05:40:15.978Z,6.60
2023-03-27T05:40:41.747Z,6.60
2023-03-27T05:41:04.792Z,6.60
2023-03-27T05:41:27.548Z,6.60